MSC Maria Saveria — 3FLE8 — position and weather

sailwx.info

Track history (hours):
 
Tides and Currents Weather Stations Pressure Air Temp Water Temp Dewpoint Dewpoint Depression Visibility Wind Speed Wind Dir Waves Ship Positions

MSC Maria Saveria

Last reported at 2017-Mar-23 17:33 UTC. Time now 2017-Mar-23 18:22 UTC.
Position N 51°58' E 001°17'.

Length 366 m; draft 14.5 m.

Type: Ship (hazmat cat A). MMSI: 372400000.

Date/timePositionNaut miles runAvg speedWind from/ knotsBaromVisibWave heightAir tempDewpointWater temp
2017-Mar-23 17:33N 51°58' E 001°17'0 0.0
2017-Mar-23 16:33N 51°58' E 001°17'0 0.0
2017-Mar-23 15:33N 51°58' E 001°17'0 0.0
2017-Mar-23 14:33N 51°58' E 001°17'0 0.0
2017-Mar-23 13:33N 51°58' E 001°17'0 0.0
2017-Mar-23 12:33N 51°58' E 001°17'0 0.0
2017-Mar-23 11:33N 51°58' E 001°17'0 0.0
2017-Mar-23 10:33N 51°58' E 001°17'0 0.0
2017-Mar-23 09:33N 51°58' E 001°17'2 1.5
2017-Mar-23 08:33N 51°57' E 001°19'10 9.8
2017-Mar-23 07:33N 51°53' E 001°34'9 8.6
2017-Mar-23 06:34N 51°51' E 001°47'1413.6
2017-Mar-23 05:33N 51°37' E 001°49'1616.3
2017-Mar-23 04:33N 51°21' E 001°43'1515.4
2017-Mar-23 03:33N 51°06' E 001°42'1716.9
2017-Mar-23 02:33N 50°53' E 001°24'1817.9
2017-Mar-23 01:33N 50°37' E 001°11'1818.3
2017-Mar-23 00:33N 50°28' E 000°46'1818.5
2017-Mar-22 23:33N 50°22' E 000°19'1818.4
2017-Mar-22 22:33N 50°18' W 000°09'1818.1
2017-Mar-22 21:33N 50°14' W 000°37'1818.0
2017-Mar-22 20:32N 50°09' W 001°05'1818.4
2017-Mar-22 19:33N 50°04' W 001°31'1918.9
2017-Mar-22 18:34N 49°59' W 001°60'2519.6
2017-Mar-22 17:18N 49°52' W 002°37'1519.7
2017-Mar-22 16:33N 49°48' W 002°58'2019.7
2017-Mar-22 15:32N 49°39' W 003°26'8020.0
2017-Mar-22 11:33N 48°57' W 005°10'60820.3
2017-Mar-21 05:32N 39°23' W 009°49'2020.8
2017-Mar-21 04:34N 39°03' W 009°49'2120.9
2017-Mar-21 03:33N 38°42' W 009°50'2120.9
2017-Mar-21 02:33N 38°21' W 009°45'2121.2
2017-Mar-21 01:33N 38°01' W 009°39'2121.2
2017-Mar-21 00:33N 37°40' W 009°34'7918.4
2017-Mar-20 20:16N 36°36' W 008°35'14820.9
2017-Mar-20 13:12N 35°58' W 005°38'1218.8
2017-Mar-20 12:33N 36°00' W 005°24'2020.3
2017-Mar-20 11:33N 36°05' W 004°59'3020.3
2017-Mar-20 10:03N 36°07' W 004°22'22621.4
2017-Mar-19 23:30N 36°37' E 000°16'1920.7
2017-Mar-19 22:33N 36°40' E 000°40'4120.5
2017-Mar-19 20:33N 36°47' E 001°30'2221.6
2017-Mar-19 19:33N 36°51' E 001°57'2020.3
2017-Mar-19 18:33N 36°54' E 002°22'4822.5
2017-Mar-19 16:26N 37°03' E 003°21'1922.2
2017-Mar-19 15:33N 37°07' E 003°45'2222.1
2017-Mar-19 14:33N 37°11' E 004°12'2121.7
2017-Mar-19 13:33N 37°14' E 004°39'2221.5
2017-Mar-19 12:33N 37°18' E 005°05'2121.3
2017-Mar-19 11:33N 37°22' E 005°32'2220.8
2017-Mar-19 10:30N 37°28' E 005°58'2021.1
2017-Mar-19 09:33N 37°30' E 006°24'2121.2
2017-Mar-19 08:33N 37°34' E 006°50'10420.9
2017-Mar-19 03:33N 37°52' E 008°60'2120.5
2017-Mar-19 02:33N 37°55' E 009°25'2121.0
2017-Mar-19 01:33N 37°59' E 009°51'2221.6
2017-Mar-19 00:33N 38°02' E 010°18'2121.0
2017-Mar-18 23:33N 38°06' E 010°45'2120.9
2017-Mar-18 22:33N 38°10' E 011°11'5021.4
2017-Mar-18 20:14N 38°18' E 012°13'1420.8
2017-Mar-18 19:33N 38°20' E 012°31'2020.7
2017-Mar-18 18:33N 38°23' E 012°57'2019.9
2017-Mar-18 17:33N 38°25' E 013°22'2020.3
2017-Mar-18 16:33N 38°24' E 013°48'2221.5
2017-Mar-18 15:33N 38°22' E 014°15'2221.6
2017-Mar-18 14:33N 38°21' E 014°43'2120.9
2017-Mar-18 13:33N 38°21' E 015°10'2120.9
2017-Mar-18 12:33N 38°24' E 015°36'1414.4
2017-Mar-18 11:33N 38°27' E 015°54'1 1.1
2017-Mar-18 10:32N 38°28' E 015°55'0 0.0
2017-Mar-18 09:32N 38°28' E 015°55'0 0.0
2017-Mar-18 08:32N 38°28' E 015°55'0 0.0
2017-Mar-18 07:20N 38°28' E 015°55'0 0.0
2017-Mar-18 06:32N 38°28' E 015°55'0 0.0
2017-Mar-18 05:29N 38°28' E 015°55'0 0.0
2017-Mar-18 04:32N 38°28' E 015°55'0 0.0
2017-Mar-18 03:32N 38°28' E 015°55'0 0.0
2017-Mar-18 02:20N 38°28' E 015°55'0 0.0
2017-Mar-17 20:32N 38°28' E 015°55'0 0.0
2017-Mar-17 19:26N 38°28' E 015°55'0 0.0
2017-Mar-17 18:32N 38°28' E 015°55'0 0.0
2017-Mar-17 17:20N 38°28' E 015°55'1 1.5
2017-Mar-17 16:33N 38°27' E 015°54'3 2.7
2017-Mar-17 15:33N 38°27' E 015°51'1211.6
2017-Mar-17 14:34N 38°17' E 015°43'1414.1
2017-Mar-17 13:33N 38°04' E 015°36'1515.0
2017-Mar-17 12:33N 37°51' E 015°45'2217.7
2017-Mar-17 11:18N 37°45' E 016°13'35515.3
2017-Mar-16 12:03N 37°31' E 023°40'917.9
2017-Mar-16 11:33N 37°40' E 023°41'1716.6
2017-Mar-16 10:34N 37°56' E 023°36'1 1.0
2017-Mar-16 09:27N 37°57' E 023°36'0 0.0
2017-Mar-16 08:32N 37°57' E 023°36'0 0.0
2017-Mar-16 07:32N 37°57' E 023°36'0 0.0
2017-Mar-16 06:32N 37°57' E 023°36'0 0.0
2017-Mar-16 05:32N 37°57' E 023°36'0 0.0
2017-Mar-16 04:33N 37°57' E 023°36'0 0.0
2017-Mar-16 03:32N 37°57' E 023°36'0 0.0
2017-Mar-16 02:33N 37°57' E 023°36'0 0.0
2017-Mar-16 01:33N 37°57' E 023°36'0 0.0
2017-Mar-16 00:32N 37°57' E 023°36'0 0.0
2017-Mar-15 23:32N 37°57' E 023°36'0 0.0
2017-Mar-15 22:32N 37°57' E 023°36'0 0.0
2017-Mar-15 21:33N 37°57' E 023°36'0 0.0
2017-Mar-15 20:32N 37°57' E 023°36'0 0.0
2017-Mar-15 19:33N 37°57' E 023°36'0 0.0
2017-Mar-15 18:32N 37°57' E 023°36'0 0.0
2017-Mar-15 17:32N 37°57' E 023°36'0 0.0
2017-Mar-15 16:32N 37°57' E 023°36'0 0.0
2017-Mar-15 15:32N 37°57' E 023°36'0 0.0
2017-Mar-15 14:32N 37°57' E 023°36'1 1.2
2017-Mar-15 13:33N 37°57' E 023°35'4 3.8
2017-Mar-15 12:33N 37°53' E 023°35'0 0.4
2017-Mar-15 11:34N 37°52' E 023°35'0 0.0
2017-Mar-15 10:33N 37°52' E 023°35'0 0.1
2017-Mar-15 09:33N 37°53' E 023°35'2 2.1
2017-Mar-15 08:33N 37°51' E 023°37'5 4.8
2017-Mar-15 07:33N 37°48' E 023°41'4 3.7
2017-Mar-15 06:33N 37°44' E 023°43'5 4.9
2017-Mar-15 05:33N 37°40' E 023°45'2 0.8
2017-Mar-15 02:22N 37°38' E 023°46'5 5.6
2017-Mar-15 01:33N 37°35' E 023°51'1514.7
2017-Mar-15 00:34N 37°25' E 024°03'1514.9
2017-Mar-14 23:33N 37°13' E 024°16'  
Track history (hours):
 
Tides and Currents Weather Stations Pressure Air Temp Water Temp Dewpoint Dewpoint Depression Visibility Wind Speed Wind Dir Waves Ship Positions

MSC Maria Saveria

Last reported at 2017-Mar-23 17:33 UTC. Time now 2017-Mar-23 18:22 UTC.
Position N 51°58' E 001°17'.

Length 366 m; draft 14.5 m.

Type: Ship (hazmat cat A). MMSI: 372400000.

Date/timePositionNaut miles runAvg speedWind from/ knotsBaromVisibWave heightAir tempDewpointWater temp
2017-Mar-23 17:33N 51°58' E 001°17'0 0.0
2017-Mar-23 16:33N 51°58' E 001°17'0 0.0
2017-Mar-23 15:33N 51°58' E 001°17'0 0.0
2017-Mar-23 14:33N 51°58' E 001°17'0 0.0
2017-Mar-23 13:33N 51°58' E 001°17'0 0.0
2017-Mar-23 12:33N 51°58' E 001°17'0 0.0
2017-Mar-23 11:33N 51°58' E 001°17'0 0.0
2017-Mar-23 10:33N 51°58' E 001°17'0 0.0
2017-Mar-23 09:33N 51°58' E 001°17'2 1.5
2017-Mar-23 08:33N 51°57' E 001°19'10 9.8
2017-Mar-23 07:33N 51°53' E 001°34'9 8.6
2017-Mar-23 06:34N 51°51' E 001°47'1413.6
2017-Mar-23 05:33N 51°37' E 001°49'1616.3
2017-Mar-23 04:33N 51°21' E 001°43'1515.4
2017-Mar-23 03:33N 51°06' E 001°42'1716.9
2017-Mar-23 02:33N 50°53' E 001°24'1817.9
2017-Mar-23 01:33N 50°37' E 001°11'1818.3
2017-Mar-23 00:33N 50°28' E 000°46'1818.5
2017-Mar-22 23:33N 50°22' E 000°19'1818.4
2017-Mar-22 22:33N 50°18' W 000°09'1818.1
2017-Mar-22 21:33N 50°14' W 000°37'1818.0
2017-Mar-22 20:32N 50°09' W 001°05'1818.4
2017-Mar-22 19:33N 50°04' W 001°31'1918.9
2017-Mar-22 18:34N 49°59' W 001°60'2519.6
2017-Mar-22 17:18N 49°52' W 002°37'1519.7
2017-Mar-22 16:33N 49°48' W 002°58'2019.7
2017-Mar-22 15:32N 49°39' W 003°26'8020.0
2017-Mar-22 11:33N 48°57' W 005°10'60820.3
2017-Mar-21 05:32N 39°23' W 009°49'2020.8
2017-Mar-21 04:34N 39°03' W 009°49'2120.9
2017-Mar-21 03:33N 38°42' W 009°50'2120.9
2017-Mar-21 02:33N 38°21' W 009°45'2121.2
2017-Mar-21 01:33N 38°01' W 009°39'2121.2
2017-Mar-21 00:33N 37°40' W 009°34'7918.4
2017-Mar-20 20:16N 36°36' W 008°35'14820.9
2017-Mar-20 13:12N 35°58' W 005°38'1218.8
2017-Mar-20 12:33N 36°00' W 005°24'2020.3
2017-Mar-20 11:33N 36°05' W 004°59'3020.3
2017-Mar-20 10:03N 36°07' W 004°22'22621.4
2017-Mar-19 23:30N 36°37' E 000°16'1920.7
2017-Mar-19 22:33N 36°40' E 000°40'4120.5
2017-Mar-19 20:33N 36°47' E 001°30'2221.6
2017-Mar-19 19:33N 36°51' E 001°57'2020.3
2017-Mar-19 18:33N 36°54' E 002°22'4822.5
2017-Mar-19 16:26N 37°03' E 003°21'1922.2
2017-Mar-19 15:33N 37°07' E 003°45'2222.1
2017-Mar-19 14:33N 37°11' E 004°12'2121.7
2017-Mar-19 13:33N 37°14' E 004°39'2221.5
2017-Mar-19 12:33N 37°18' E 005°05'2121.3
2017-Mar-19 11:33N 37°22' E 005°32'2220.8
2017-Mar-19 10:30N 37°28' E 005°58'2021.1
2017-Mar-19 09:33N 37°30' E 006°24'2121.2
2017-Mar-19 08:33N 37°34' E 006°50'10420.9
2017-Mar-19 03:33N 37°52' E 008°60'2120.5
2017-Mar-19 02:33N 37°55' E 009°25'2121.0
2017-Mar-19 01:33N 37°59' E 009°51'2221.6
2017-Mar-19 00:33N 38°02' E 010°18'2121.0
2017-Mar-18 23:33N 38°06' E 010°45'2120.9
2017-Mar-18 22:33N 38°10' E 011°11'5021.4
2017-Mar-18 20:14N 38°18' E 012°13'1420.8
2017-Mar-18 19:33N 38°20' E 012°31'2020.7
2017-Mar-18 18:33N 38°23' E 012°57'2019.9
2017-Mar-18 17:33N 38°25' E 013°22'2020.3
2017-Mar-18 16:33N 38°24' E 013°48'2221.5
2017-Mar-18 15:33N 38°22' E 014°15'2221.6
2017-Mar-18 14:33N 38°21' E 014°43'2120.9
2017-Mar-18 13:33N 38°21' E 015°10'2120.9
2017-Mar-18 12:33N 38°24' E 015°36'1414.4
2017-Mar-18 11:33N 38°27' E 015°54'1 1.1
2017-Mar-18 10:32N 38°28' E 015°55'0 0.0
2017-Mar-18 09:32N 38°28' E 015°55'0 0.0
2017-Mar-18 08:32N 38°28' E 015°55'0 0.0
2017-Mar-18 07:20N 38°28' E 015°55'0 0.0
2017-Mar-18 06:32N 38°28' E 015°55'0 0.0
2017-Mar-18 05:29N 38°28' E 015°55'0 0.0
2017-Mar-18 04:32N 38°28' E 015°55'0 0.0
2017-Mar-18 03:32N 38°28' E 015°55'0 0.0
2017-Mar-18 02:20N 38°28' E 015°55'0 0.0
2017-Mar-17 20:32N 38°28' E 015°55'0 0.0
2017-Mar-17 19:26N 38°28' E 015°55'0 0.0
2017-Mar-17 18:32N 38°28' E 015°55'0 0.0
2017-Mar-17 17:20N 38°28' E 015°55'1 1.5
2017-Mar-17 16:33N 38°27' E 015°54'3 2.7
2017-Mar-17 15:33N 38°27' E 015°51'1211.6
2017-Mar-17 14:34N 38°17' E 015°43'1414.1
2017-Mar-17 13:33N 38°04' E 015°36'1515.0
2017-Mar-17 12:33N 37°51' E 015°45'2217.7
2017-Mar-17 11:18N 37°45' E 016°13'35515.3
2017-Mar-16 12:03N 37°31' E 023°40'917.9
2017-Mar-16 11:33N 37°40' E 023°41'1716.6
2017-Mar-16 10:34N 37°56' E 023°36'1 1.0
2017-Mar-16 09:27N 37°57' E 023°36'0 0.0
2017-Mar-16 08:32N 37°57' E 023°36'0 0.0
2017-Mar-16 07:32N 37°57' E 023°36'0 0.0
2017-Mar-16 06:32N 37°57' E 023°36'0 0.0
2017-Mar-16 05:32N 37°57' E 023°36'0 0.0
2017-Mar-16 04:33N 37°57' E 023°36'0 0.0
2017-Mar-16 03:32N 37°57' E 023°36'0 0.0
2017-Mar-16 02:33N 37°57' E 023°36'0 0.0
2017-Mar-16 01:33N 37°57' E 023°36'0 0.0
2017-Mar-16 00:32N 37°57' E 023°36'0 0.0
2017-Mar-15 23:32N 37°57' E 023°36'0 0.0
2017-Mar-15 22:32N 37°57' E 023°36'0 0.0
2017-Mar-15 21:33N 37°57' E 023°36'0 0.0
2017-Mar-15 20:32N 37°57' E 023°36'0 0.0
2017-Mar-15 19:33N 37°57' E 023°36'0 0.0
2017-Mar-15 18:32N 37°57' E 023°36'0 0.0
2017-Mar-15 17:32N 37°57' E 023°36'0 0.0
2017-Mar-15 16:32N 37°57' E 023°36'0 0.0
2017-Mar-15 15:32N 37°57' E 023°36'0 0.0
2017-Mar-15 14:32N 37°57' E 023°36'1 1.2
2017-Mar-15 13:33N 37°57' E 023°35'4 3.8
2017-Mar-15 12:33N 37°53' E 023°35'0 0.4
2017-Mar-15 11:34N 37°52' E 023°35'0 0.0
2017-Mar-15 10:33N 37°52' E 023°35'0 0.1
2017-Mar-15 09:33N 37°53' E 023°35'2 2.1
2017-Mar-15 08:33N 37°51' E 023°37'5 4.8
2017-Mar-15 07:33N 37°48' E 023°41'4 3.7
2017-Mar-15 06:33N 37°44' E 023°43'5 4.9
2017-Mar-15 05:33N 37°40' E 023°45'2 0.8
2017-Mar-15 02:22N 37°38' E 023°46'5 5.6
2017-Mar-15 01:33N 37°35' E 023°51'1514.7
2017-Mar-15 00:34N 37°25' E 024°03'1514.9
2017-Mar-14 23:33N 37°13' E 024°16'  

Dump ship's entire track history